createdAt,value
2022-11-17T00:03:41.789Z,98750.31
2022-11-17T00:08:45.952Z,98748.75
2022-11-17T00:14:06.440Z,98756.00
2022-11-17T00:19:27.253Z,98761.13
2022-11-17T00:24:31.369Z,98760.97
2022-11-17T00:29:39.048Z,98754.25
2022-11-17T00:34:42.117Z,98749.88
2022-11-17T00:39:46.209Z,98741.78
2022-11-17T00:44:51.982Z,98747.88
2022-11-17T00:49:54.695Z,98740.63
2022-11-17T00:54:58.881Z,98741.34
2022-11-17T01:00:01.654Z,98743.47
2022-11-17T01:05:04.713Z,98744.47
2022-11-17T01:10:10.358Z,98739.22
2022-11-17T01:15:13.124Z,98744.09
2022-11-17T01:20:16.325Z,98750.09
2022-11-17T01:25:20.670Z,98729.97
2022-11-17T01:30:23.453Z,98719.25
2022-11-17T01:35:26.210Z,98703.97
2022-11-17T01:40:30.372Z,98691.25
2022-11-17T01:45:33.290Z,98679.06
2022-11-17T01:50:40.125Z,98680.34
2022-11-17T01:55:50.093Z,98690.03
2022-11-17T02:00:55.289Z,98684.56
2022-11-17T02:06:04.327Z,98677.78
2022-11-17T02:11:15.143Z,98682.59
2022-11-17T02:16:18.663Z,98679.63
2022-11-17T02:21:43.821Z,98684.78
2022-11-17T02:27:09.824Z,98693.28
2022-11-17T02:32:20.392Z,98681.41
2022-11-17T02:37:32.724Z,98676.63
2022-11-17T02:42:57.858Z,98668.97
2022-11-17T02:48:06.938Z,98680.19
2022-11-17T02:53:10.044Z,98679.78
2022-11-17T02:58:12.970Z,98670.28
2022-11-17T03:03:38.029Z,98666.34
2022-11-17T03:08:48.920Z,98667.66
2022-11-17T03:14:02.769Z,98668.06
2022-11-17T03:19:15.866Z,98658.75
2022-11-17T03:24:22.936Z,98655.47
2022-11-17T03:29:30.310Z,98655.91
2022-11-17T03:34:38.408Z,98647.28
2022-11-17T03:39:44.697Z,98649.53
2022-11-17T03:44:55.736Z,98650.81
2022-11-17T03:50:04.936Z,98654.09
2022-11-17T03:55:10.041Z,98651.69
2022-11-17T04:00:15.053Z,98643.06
2022-11-17T04:05:19.330Z,98633.56
2022-11-17T04:10:25.703Z,98627.66
2022-11-17T04:15:46.322Z,98615.31
2022-11-17T04:20:53.297Z,98619.28
2022-11-17T04:26:15.009Z,98612.22
2022-11-17T04:31:19.354Z,98613.50
2022-11-17T04:36:25.714Z,98609.56
2022-11-17T04:41:47.299Z,98608.13
2022-11-17T04:46:50.465Z,98608.41
2022-11-17T04:51:55.380Z,98603.44
2022-11-17T04:56:58.366Z,98594.84
2022-11-17T05:02:05.627Z,98618.59
2022-11-17T05:07:10.426Z,98615.22
2022-11-17T05:12:30.819Z,98609.25
2022-11-17T05:17:33.601Z,98614.06
2022-11-17T05:22:55.098Z,98592.00
2022-11-17T05:27:57.837Z,98594.09
2022-11-17T05:33:00.609Z,98607.69
2022-11-17T05:38:04.691Z,98595.50
2022-11-17T05:43:07.401Z,98583.22
2022-11-17T05:48:10.132Z,98569.19
2022-11-17T05:53:14.492Z,98557.59
2022-11-17T05:58:22.032Z,98565.94
2022-11-17T06:03:29.049Z,98556.34
2022-11-17T06:08:33.126Z,98543.06
2022-11-17T06:13:36.250Z,98517.31
2022-11-17T06:18:45.846Z,98505.00
2022-11-17T06:23:51.538Z,98504.28
2022-11-17T06:28:55.112Z,98512.66
2022-11-17T06:33:57.850Z,98513.63
2022-11-17T06:39:01.999Z,98505.84
2022-11-17T06:44:04.907Z,98509.69
2022-11-17T06:49:08.516Z,98508.94
2022-11-17T06:54:14.520Z,98510.09
2022-11-17T06:59:17.555Z,98504.00
2022-11-17T07:04:20.336Z,98506.97
2022-11-17T07:09:25.300Z,98524.94
2022-11-17T07:14:28.322Z,98513.59
2022-11-17T07:19:31.030Z,98511.06
2022-11-17T07:24:35.139Z,98505.84
2022-11-17T07:29:37.931Z,98510.34
2022-11-17T07:34:40.961Z,98524.75
2022-11-17T07:39:45.038Z,98528.44
2022-11-17T07:44:47.769Z,98526.91
2022-11-17T07:49:50.657Z,98514.56
2022-11-17T07:54:54.880Z,98498.75
2022-11-17T07:59:57.613Z,98496.47
2022-11-17T08:05:00.364Z,98490.09
2022-11-17T08:10:05.000Z,98478.97
2022-11-17T08:15:09.251Z,98477.38
2022-11-17T08:20:13.441Z,98485.84
2022-11-17T08:25:17.974Z,98482.22
2022-11-17T08:30:20.836Z,98471.41
2022-11-17T08:35:25.895Z,98477.94
2022-11-17T08:40:30.044Z,98467.78
2022-11-17T08:45:32.780Z,98473.13
2022-11-17T08:50:36.274Z,98475.56
2022-11-17T08:55:41.457Z,98476.72
2022-11-17T09:00:45.443Z,98481.91
2022-11-17T09:05:48.350Z,98483.66
2022-11-17T09:10:52.601Z,98477.84
2022-11-17T09:15:55.329Z,98476.16
2022-11-17T09:21:01.122Z,98477.84
2022-11-17T09:26:08.839Z,98474.22
2022-11-17T09:31:13.967Z,98473.22
2022-11-17T09:36:17.398Z,98470.53
2022-11-17T09:41:27.553Z,98466.00
2022-11-17T09:46:42.469Z,98465.03
2022-11-17T09:51:50.970Z,98459.66
2022-11-17T09:56:57.663Z,98464.03
2022-11-17T10:02:00.631Z,98455.97
2022-11-17T10:07:04.614Z,98450.47
2022-11-17T10:12:17.104Z,98440.19
2022-11-17T10:17:19.893Z,98439.91
2022-11-17T10:22:35.357Z,98436.38
2022-11-17T10:27:52.732Z,98438.09
2022-11-17T10:32:57.336Z,98420.84
2022-11-17T10:38:01.764Z,98422.69
2022-11-17T10:43:21.964Z,98421.56
2022-11-17T10:48:28.894Z,98399.38
2022-11-17T10:53:44.924Z,98395.84
2022-11-17T10:59:17.837Z,98395.00
2022-11-17T11:04:33.042Z,98382.44
2022-11-17T11:09:38.532Z,98396.69
2022-11-17T11:14:48.810Z,98383.28
2022-11-17T11:19:53.892Z,98386.84
2022-11-17T11:25:09.201Z,98372.53
2022-11-17T11:30:16.311Z,98384.16
2022-11-17T11:35:36.545Z,98379.91
2022-11-17T11:40:41.641Z,98366.34
2022-11-17T11:45:56.482Z,98352.91
2022-11-17T11:51:00.841Z,98353.75
2022-11-17T11:56:15.132Z,98354.34
2022-11-17T12:01:22.589Z,98349.81
2022-11-17T12:06:43.643Z,98338.25
2022-11-17T12:12:02.037Z,98339.84
2022-11-17T12:17:17.164Z,98333.72
2022-11-17T12:22:44.600Z,98340.78
2022-11-17T12:27:50.061Z,98331.88
2022-11-17T12:32:55.394Z,98337.16
2022-11-17T12:38:37.290Z,98323.84
2022-11-17T12:43:40.145Z,98316.53
2022-11-17T12:48:54.278Z,98315.53
2022-11-17T12:54:07.830Z,98324.44
2022-11-17T12:59:31.313Z,98318.38
2022-11-17T13:04:49.179Z,98322.59
2022-11-17T13:09:53.964Z,98326.13
2022-11-17T13:14:58.506Z,98311.88
2022-11-17T13:20:05.424Z,98315.41
2022-11-17T13:25:22.412Z,98306.34
2022-11-17T13:30:27.329Z,98302.69
2022-11-17T13:35:33.257Z,98302.69
2022-11-17T13:40:37.895Z,98293.66
2022-11-17T13:45:43.377Z,98300.00
2022-11-17T13:50:48.032Z,98293.66
2022-11-17T13:55:51.626Z,98297.31
2022-11-17T14:00:57.056Z,98293.78
2022-11-17T14:06:01.408Z,98297.47
2022-11-17T14:11:22.217Z,98297.19
2022-11-17T14:16:27.981Z,98292.09
2022-11-17T14:21:33.453Z,98287.41
2022-11-17T14:26:41.434Z,98290.50
2022-11-17T14:31:44.390Z,98296.03
2022-11-17T14:36:50.896Z,98293.03
2022-11-17T14:41:53.659Z,98299.28
2022-11-17T14:46:56.368Z,98310.16
2022-11-17T14:52:00.453Z,98309.31
2022-11-17T14:57:03.210Z,98311.16
2022-11-17T15:02:09.791Z,98314.53
2022-11-17T15:07:14.304Z,98306.63
2022-11-17T15:12:17.173Z,98307.34
2022-11-17T15:17:20.371Z,98309.16
2022-11-17T15:22:24.515Z,98308.03
2022-11-17T15:27:27.372Z,98321.47
2022-11-17T15:32:30.132Z,98318.94
2022-11-17T15:37:34.266Z,98324.13
2022-11-17T15:42:37.027Z,98313.69
2022-11-17T15:47:39.727Z,98317.34
2022-11-17T15:53:08.463Z,98323.56
2022-11-17T15:58:06.869Z,98328.81
2022-11-17T16:03:09.773Z,98324.28
2022-11-17T16:08:13.880Z,98317.94
2022-11-17T16:13:16.661Z,98328.50
2022-11-17T16:18:19.493Z,98320.31
2022-11-17T16:23:23.705Z,98324.00
2022-11-17T16:28:27.022Z,98322.16
2022-11-17T16:33:29.745Z,98316.78
2022-11-17T16:38:33.935Z,98313.97
2022-11-17T16:43:41.623Z,98305.91
2022-11-17T16:48:48.090Z,98305.63
2022-11-17T16:53:56.752Z,98297.41
2022-11-17T16:58:59.883Z,98302.50
2022-11-17T17:04:04.657Z,98306.88
2022-11-17T17:09:10.390Z,98313.94
2022-11-17T17:14:14.552Z,98314.78
2022-11-17T17:19:18.537Z,98318.31
2022-11-17T17:24:22.945Z,98317.19
2022-11-17T17:29:25.713Z,98313.34
2022-11-17T17:34:28.651Z,98316.88
2022-11-17T17:39:33.549Z,98319.44
2022-11-17T17:44:36.289Z,98326.78
2022-11-17T17:49:39.122Z,98325.09
2022-11-17T17:54:43.218Z,98328.63
2022-11-17T17:59:45.971Z,98320.72
2022-11-17T18:04:48.814Z,98324.41
2022-11-17T18:09:52.923Z,98328.09
2022-11-17T18:14:55.643Z,98342.19
2022-11-17T18:19:58.433Z,98345.56
2022-11-17T18:25:07.355Z,98352.22
2022-11-17T18:30:11.258Z,98345.28
2022-11-17T18:35:14.011Z,98352.44
2022-11-17T18:40:18.733Z,98349.91
2022-11-17T18:45:21.578Z,98343.78
2022-11-17T18:50:24.376Z,98336.84
2022-11-17T18:55:28.538Z,98343.19
2022-11-17T19:00:31.290Z,98349.50
2022-11-17T19:05:35.218Z,98357.84
2022-11-17T19:10:39.485Z,98356.25
2022-11-17T19:15:42.233Z,98354.50
2022-11-17T19:20:45.554Z,98351.94
2022-11-17T19:25:49.742Z,98338.16
2022-11-17T19:30:52.672Z,98340.25
2022-11-17T19:35:55.590Z,98335.28
2022-11-17T19:41:03.882Z,98339.34
2022-11-17T19:46:08.551Z,98334.38
2022-11-17T19:51:16.881Z,98342.00
2022-11-17T19:56:22.018Z,98346.91
2022-11-17T20:01:26.661Z,98345.78
2022-11-17T20:06:31.973Z,98358.63
2022-11-17T20:11:36.909Z,98365.56
2022-11-17T20:16:39.690Z,98370.47
2022-11-17T20:21:42.726Z,98369.19
2022-11-17T20:26:47.205Z,98368.72
2022-11-17T20:31:50.063Z,98367.25
2022-11-17T20:36:52.917Z,98379.41
2022-11-17T20:41:57.088Z,98363.94
2022-11-17T20:46:59.883Z,98375.09
2022-11-17T20:52:02.643Z,98386.25
2022-11-17T20:57:06.855Z,98375.16
2022-11-17T21:02:10.286Z,98370.31
2022-11-17T21:07:13.359Z,98368.19
2022-11-17T21:12:17.577Z,98372.22
2022-11-17T21:17:46.826Z,98354.09
2022-11-17T21:22:49.900Z,98357.47
2022-11-17T21:27:54.209Z,98364.25
2022-11-17T21:32:56.921Z,98372.16
2022-11-17T21:37:59.720Z,98382.41
2022-11-17T21:43:03.791Z,98391.72
2022-11-17T21:48:06.919Z,98393.25
2022-11-17T21:53:09.722Z,98397.63
2022-11-17T21:58:13.911Z,98401.88
2022-11-17T22:03:16.628Z,98395.31
2022-11-17T22:08:19.377Z,98385.38
2022-11-17T22:13:23.516Z,98374.94
2022-11-17T22:18:26.330Z,98376.06
2022-11-17T22:23:29.487Z,98380.63
2022-11-17T22:28:33.618Z,98381.78
2022-11-17T22:33:39.916Z,98400.47
2022-11-17T22:38:43.154Z,98402.50
2022-11-17T22:43:51.609Z,98421.34
2022-11-17T22:48:54.563Z,98417.09
2022-11-17T22:53:57.399Z,98426.34
2022-11-17T22:59:01.635Z,98433.03
2022-11-17T23:04:04.685Z,98430.34
2022-11-17T23:09:07.526Z,98440.44
2022-11-17T23:14:14.217Z,98440.44
2022-11-17T23:19:17.316Z,98432.50
2022-11-17T23:24:20.366Z,98436.88
2022-11-17T23:29:24.461Z,98441.56
2022-11-17T23:34:27.551Z,98436.50
2022-11-17T23:39:30.519Z,98435.50
2022-11-17T23:44:34.756Z,98445.28
2022-11-17T23:49:37.500Z,98447.97
2022-11-17T23:54:40.329Z,98447.97
2022-11-17T23:59:44.469Z,98452.50
